Time;durP1;ratioP1;P1;durP2;ratioP2;P2;SDS_P1;SDS_P2;PMS_P1;PMS_P2;Temp;Humidity;BMP_temperature;BMP_pressure;BME280_temperature;BME280_humidity;BME280_pressure;Samples;Min_cycle;Max_cycle;Signal;HPM_P1;HPM_P2
2022/06/27 00:01:59;;;;;;;6.82;3.95;;;19.00;99.00;;;;;;4986856;28;20526;-43
2022/06/27 00:04:26;;;;;;;7.13;3.92;;;19.00;99.00;;;;;;4968400;28;20055;-44
2022/06/27 00:06:54;;;;;;;8.20;3.90;;;18.90;99.20;;;;;;4985933;28;20495;-43
2022/06/27 00:09:21;;;;;;;6.70;3.90;;;18.90;99.20;;;;;;4995369;28;20073;-43
2022/06/27 00:11:48;;;;;;;5.55;3.90;;;18.90;99.10;;;;;;4982646;28;20513;-42
2022/06/27 00:14:15;;;;;;;7.45;3.72;;;18.90;99.20;;;;;;4963594;28;20110;-44
2022/06/27 00:16:42;;;;;;;9.43;4.35;;;18.90;99.10;;;;;;4976527;28;20097;-43
2022/06/27 00:19:08;;;;;;;7.25;3.72;;;18.90;99.30;;;;;;4987559;28;20458;-43
2022/06/27 00:21:35;;;;;;;5.97;4.03;;;18.90;99.30;;;;;;4993477;28;20050;-43
2022/06/27 00:24:04;;;;;;;5.63;3.33;;;18.80;99.40;;;;;;4995286;28;20104;-44
2022/06/27 00:26:30;;;;;;;9.25;3.83;;;18.80;99.30;;;;;;4994382;28;20050;-43
2022/06/27 00:28:57;;;;;;;4.75;3.05;;;18.80;99.10;;;;;;4972204;28;20051;-43
2022/06/27 00:31:24;;;;;;;7.22;3.40;;;18.70;99.20;;;;;;4995340;28;20086;-43
2022/06/27 00:33:51;;;;;;;6.72;3.35;;;18.70;99.20;;;;;;4977850;28;20046;-43
2022/06/27 00:36:17;;;;;;;4.63;2.90;;;18.70;99.30;;;;;;4974564;28;20121;-45
2022/06/27 00:38:44;;;;;;;6.80;4.15;;;18.70;99.30;;;;;;4970552;28;20117;-44
2022/06/27 00:41:12;;;;;;;7.15;3.55;;;18.70;99.60;;;;;;4992357;28;20104;-43
2022/06/27 00:43:42;;;;;;;4.63;3.40;;;18.60;99.30;;;;;;4977907;28;20132;-44
2022/06/27 00:46:09;;;;;;;5.95;3.13;;;18.60;99.20;;;;;;4993674;28;20108;-44
2022/06/27 00:48:36;;;;;;;6.05;3.20;;;18.60;99.30;;;;;;4977712;28;20105;-43
2022/06/27 00:51:03;;;;;;;6.35;3.10;;;18.60;99.50;;;;;;4994972;28;20054;-43
2022/06/27 00:53:32;;;;;;;4.43;3.30;;;18.60;99.60;;;;;;4995099;28;20129;-43
2022/06/27 00:55:59;;;;;;;4.13;2.92;;;18.60;99.60;;;;;;4990333;28;20050;-43
2022/06/27 00:58:27;;;;;;;5.72;3.75;;;18.60;99.50;;;;;;4993893;28;20097;-43
2022/06/27 01:00:53;;;;;;;6.82;3.58;;;18.60;99.80;;;;;;4983687;28;20045;-43
2022/06/27 01:03:20;;;;;;;6.18;3.60;;;18.60;99.90;;;;;;4968579;28;20085;-42
2022/06/27 01:05:52;;;;;;;5.68;3.92;;;18.50;99.90;;;;;;4984793;28;20151;-44
2022/06/27 01:08:19;;;;;;;8.50;4.22;;;18.50;99.90;;;;;;4976515;28;20058;-43
2022/06/27 01:10:45;;;;;;;5.35;3.03;;;18.50;99.90;;;;;;4992871;28;20801;-44
2022/06/27 01:13:12;;;;;;;5.03;3.70;;;18.50;99.90;;;;;;4994143;28;20047;-44
2022/06/27 01:15:40;;;;;;;5.25;3.40;;;18.50;99.90;;;;;;4994749;28;20075;-43
2022/06/27 01:18:07;;;;;;;6.60;3.50;;;18.50;99.90;;;;;;4994070;28;20046;-44
2022/06/27 01:20:34;;;;;;;6.90;3.42;;;18.40;99.90;;;;;;4972540;28;20129;-43
2022/06/27 01:23:02;;;;;;;5.40;3.80;;;18.40;99.90;;;;;;4977472;28;20097;-44
2022/06/27 01:25:29;;;;;;;6.38;4.00;;;18.40;99.90;;;;;;4994352;28;20062;-44
2022/06/27 01:27:56;;;;;;;7.30;4.07;;;18.40;99.90;;;;;;4992492;28;20050;-44
2022/06/27 01:30:23;;;;;;;5.05;3.75;;;18.30;99.90;;;;;;4991264;28;20054;-44
2022/06/27 01:32:50;;;;;;;5.13;3.83;;;18.40;99.90;;;;;;4988876;28;20082;-45
2022/06/27 01:35:17;;;;;;;5.15;3.75;;;18.40;99.90;;;;;;4993915;28;20062;-43
2022/06/27 01:37:44;;;;;;;5.90;3.67;;;18.40;99.90;;;;;;4987082;28;20051;-43
2022/06/27 01:40:12;;;;;;;6.13;3.92;;;18.30;99.90;;;;;;4971100;28;20086;-43
2022/06/27 01:42:39;;;;;;;6.60;3.95;;;18.40;99.90;;;;;;4994010;28;20050;-43
2022/06/27 01:45:06;;;;;;;5.55;4.00;;;18.30;99.90;;;;;;4993291;28;20101;-43
2022/06/27 01:47:33;;;;;;;10.63;4.28;;;18.30;99.90;;;;;;4989118;28;20050;-44
2022/06/27 01:50:00;;;;;;;6.45;3.97;;;18.30;99.90;;;;;;4986435;28;20490;-43
2022/06/27 01:52:27;;;;;;;5.40;3.53;;;18.30;99.90;;;;;;4991696;28;20387;-43
2022/06/27 01:54:53;;;;;;;4.88;3.47;;;18.30;99.90;;;;;;4985288;28;20414;-44
2022/06/27 01:57:22;;;;;;;6.35;3.80;;;18.30;99.90;;;;;;4969998;28;21326;-44
2022/06/27 01:59:49;;;;;;;8.90;3.67;;;18.30;99.90;;;;;;4967799;28;20078;-44
2022/06/27 02:02:15;;;;;;;6.07;3.50;;;18.30;99.90;;;;;;4993990;28;20414;-43
2022/06/27 02:04:43;;;;;;;9.57;4.95;;;18.30;99.90;;;;;;4993602;28;20458;-44
2022/06/27 02:07:10;;;;;;;7.38;5.00;;;18.30;99.90;;;;;;4992151;28;20050;-44
2022/06/27 02:09:37;;;;;;;7.00;4.65;;;18.20;99.90;;;;;;4984892;28;20133;-43
2022/06/27 02:15:11;;;;;;;6.80;4.07;;;18.20;99.90;;;;;;5122896;27;20894;-35
2022/06/27 02:17:38;;;;;;;5.35;3.55;;;18.30;99.90;;;;;;5120501;27;20414;-34
2022/06/27 02:20:06;;;;;;;4.63;4.05;;;18.30;99.90;;;;;;5121044;27;20131;-34
2022/06/27 02:22:33;;;;;;;5.38;3.45;;;18.20;99.90;;;;;;5131100;27;20047;-35
2022/06/27 02:25:00;;;;;;;5.38;3.65;;;18.20;99.90;;;;;;5116972;27;20079;-35
2022/06/27 02:27:26;;;;;;;9.85;3.97;;;18.20;99.90;;;;;;5127694;27;20122;-35
2022/06/27 02:29:53;;;;;;;7.70;4.35;;;18.20;99.90;;;;;;5126943;27;20123;-34
2022/06/27 02:32:21;;;;;;;6.45;4.10;;;18.20;99.90;;;;;;5129692;27;20134;-35
2022/06/27 02:34:48;;;;;;;6.88;4.20;;;18.20;99.90;;;;;;5128934;27;20082;-35
2022/06/27 02:37:15;;;;;;;6.57;4.45;;;18.30;99.90;;;;;;5129300;28;20051;-34
2022/06/27 02:39:42;;;;;;;7.28;4.88;;;18.20;99.90;;;;;;5118361;27;20048;-34
2022/06/27 02:42:09;;;;;;;5.68;4.10;;;18.20;99.90;;;;;;5125526;27;20048;-34
2022/06/27 02:44:36;;;;;;;7.15;4.25;;;18.20;99.90;;;;;;5110080;27;20067;-34
2022/06/27 02:47:03;;;;;;;8.93;5.10;;;18.20;99.90;;;;;;5112975;27;20130;-35
2022/06/27 02:49:31;;;;;;;10.45;5.13;;;18.20;99.90;;;;;;5122614;27;20132;-35
2022/06/27 02:52:02;;;;;;;6.03;4.43;;;18.20;99.90;;;;;;5128711;27;20487;-35
2022/06/27 02:54:33;;;;;;;7.60;4.15;;;18.20;99.90;;;;;;5109709;27;20060;-35
2022/06/27 02:57:03;;;;;;;8.30;4.68;;;18.10;99.90;;;;;;5112741;27;20047;-35
2022/06/27 02:59:34;;;;;;;6.88;4.53;;;18.10;99.90;;;;;;5114963;27;20052;-35
2022/06/27 03:02:01;;;;;;;6.67;4.83;;;18.10;99.90;;;;;;5142610;27;20049;-35
2022/06/27 03:04:28;;;;;;;8.77;5.43;;;18.10;99.90;;;;;;5108082;27;20309;-33
2022/06/27 03:06:56;;;;;;;11.27;6.28;;;18.10;99.90;;;;;;5118769;27;20495;-34
2022/06/27 03:09:23;;;;;;;7.70;5.10;;;18.10;99.90;;;;;;5115880;27;20048;-34
2022/06/27 03:11:49;;;;;;;11.82;5.85;;;18.10;99.90;;;;;;5142136;27;20561;-34
2022/06/27 03:14:16;;;;;;;12.13;7.80;;;18.10;99.90;;;;;;5109686;27;20051;-34
2022/06/27 03:16:43;;;;;;;6.45;4.97;;;18.10;99.90;;;;;;5115006;27;20088;-34
2022/06/27 03:19:10;;;;;;;6.40;5.35;;;18.00;99.90;;;;;;5127038;27;20051;-34
2022/06/27 03:21:36;;;;;;;8.13;5.68;;;18.00;99.90;;;;;;5113741;27;20129;-34
2022/06/27 03:24:05;;;;;;;8.85;6.35;;;17.90;99.90;;;;;;5113068;27;20090;-34
2022/06/27 03:26:32;;;;;;;11.55;7.88;;;18.00;99.90;;;;;;5104762;28;20128;-34
2022/06/27 03:28:59;;;;;;;8.73;6.70;;;18.00;99.90;;;;;;5112166;28;20126;-34
2022/06/27 03:31:26;;;;;;;10.77;6.20;;;18.00;99.90;;;;;;5114660;28;20507;-34
2022/06/27 03:33:54;;;;;;;10.75;7.05;;;17.90;99.90;;;;;;5094470;27;20521;-34
2022/06/27 03:36:21;;;;;;;10.65;8.10;;;17.90;99.90;;;;;;5099052;28;20389;-35
2022/06/27 03:38:47;;;;;;;11.10;7.85;;;17.90;99.90;;;;;;5092901;27;20048;-34
2022/06/27 03:41:16;;;;;;;9.82;6.30;;;17.90;99.90;;;;;;5092702;27;20123;-35
2022/06/27 03:43:42;;;;;;;7.13;5.95;;;17.90;99.90;;;;;;5098735;27;20071;-35
2022/06/27 03:46:09;;;;;;;11.73;7.85;;;17.90;99.90;;;;;;5113816;28;20055;-34
2022/06/27 03:51:20;;;;;;;10.02;7.07;;;17.90;99.90;;;;;;5112855;28;20052;-34
2022/06/27 03:53:47;;;;;;;9.93;8.10;;;18.00;99.90;;;;;;5108068;27;20126;-35
2022/06/27 03:56:14;;;;;;;13.48;8.40;;;18.00;99.90;;;;;;5098515;28;20063;-35
2022/06/27 03:58:42;;;;;;;14.38;8.02;;;18.00;99.90;;;;;;5107504;27;20098;-35
2022/06/27 04:01:09;;;;;;;10.45;8.10;;;18.00;99.90;;;;;;5103433;27;20059;-35
2022/06/27 04:03:36;;;;;;;13.27;8.32;;;18.00;99.90;;;;;;5094711;28;20040;-35
2022/06/27 04:06:02;;;;;;;12.00;8.48;;;18.00;99.90;;;;;;5094571;27;20063;-35
2022/06/27 04:08:29;;;;;;;11.85;8.98;;;18.00;99.90;;;;;;5129900;27;20403;-35
2022/06/27 04:10:56;;;;;;;15.63;9.50;;;18.00;99.90;;;;;;5093508;27;20052;-35
2022/06/27 04:13:23;;;;;;;16.92;10.77;;;18.00;99.90;;;;;;5096556;27;20510;-35
2022/06/27 04:15:51;;;;;;;14.57;10.75;;;17.90;99.90;;;;;;5096879;28;20044;-35
2022/06/27 04:18:18;;;;;;;12.32;9.95;;;17.90;99.90;;;;;;5095788;28;20127;-35
2022/06/27 04:20:45;;;;;;;13.40;10.35;;;17.80;99.90;;;;;;5111250;28;20043;-35
2022/06/27 04:23:11;;;;;;;13.18;10.18;;;17.80;99.90;;;;;;5113972;27;20044;-35
2022/06/27 04:25:38;;;;;;;14.60;8.93;;;17.80;99.90;;;;;;5097951;27;20055;-35
2022/06/27 04:28:05;;;;;;;8.40;7.35;;;17.70;99.90;;;;;;5095562;27;20427;-35
2022/06/27 04:30:32;;;;;;;10.82;7.13;;;17.70;99.90;;;;;;5112082;28;20094;-34
2022/06/27 04:33:00;;;;;;;6.47;5.68;;;17.60;99.90;;;;;;5094519;28;20048;-35
2022/06/27 04:35:27;;;;;;;8.07;5.90;;;17.50;99.90;;;;;;5097585;27;20078;-35
2022/06/27 04:37:54;;;;;;;7.22;5.70;;;17.40;99.90;;;;;;5103186;27;20509;-35
2022/06/27 04:40:21;;;;;;;4.85;4.25;;;17.40;99.90;;;;;;5100463;28;20052;-35
2022/06/27 04:42:49;;;;;;;6.15;4.47;;;17.30;99.90;;;;;;5095383;27;20101;-35
2022/06/27 04:45:16;;;;;;;4.72;4.32;;;17.40;99.90;;;;;;5105549;27;20059;-35
2022/06/27 04:47:43;;;;;;;5.68;4.30;;;17.40;99.90;;;;;;5097350;27;20078;-35
2022/06/27 04:50:12;;;;;;;5.88;4.40;;;17.30;99.90;;;;;;5108181;28;20101;-34
2022/06/27 04:52:39;;;;;;;5.10;4.28;;;17.40;99.90;;;;;;5095859;27;20514;-34
2022/06/27 04:55:08;;;;;;;7.00;4.18;;;17.40;99.90;;;;;;5109178;27;20051;-34
2022/06/27 04:57:35;;;;;;;5.53;4.30;;;17.40;99.90;;;;;;5093808;28;20058;-34
2022/06/27 05:00:02;;;;;;;4.90;4.40;;;17.40;99.90;;;;;;5093732;27;20048;-34
2022/06/27 05:02:29;;;;;;;8.13;4.45;;;17.40;99.90;;;;;;5108341;28;20044;-34
2022/06/27 05:04:56;;;;;;;6.47;5.07;;;17.40;99.90;;;;;;5108434;28;20043;-34
2022/06/27 05:07:25;;;;;;;7.35;5.25;;;17.40;99.90;;;;;;5094875;28;20047;-34
2022/06/27 05:09:53;;;;;;;7.68;5.68;;;17.50;99.90;;;;;;5107168;28;20044;-34
2022/06/27 05:12:20;;;;;;;6.28;4.80;;;17.50;99.90;;;;;;5092446;28;20052;-34
2022/06/27 05:14:47;;;;;;;7.95;5.30;;;17.50;99.90;;;;;;5093310;28;20128;-34
2022/06/27 05:17:14;;;;;;;6.10;5.07;;;17.50;99.90;;;;;;5103450;28;20058;-34
2022/06/27 05:19:40;;;;;;;7.88;6.38;;;17.50;99.90;;;;;;5098994;27;20056;-34
2022/06/27 05:22:08;;;;;;;8.00;6.40;;;17.60;99.90;;;;;;5092843;28;20052;-34
2022/06/27 05:24:36;;;;;;;7.45;4.90;;;17.50;99.90;;;;;;5093831;28;20478;-34
2022/06/27 05:27:03;;;;;;;6.90;6.10;;;17.60;99.90;;;;;;5094977;27;20140;-34
2022/06/27 05:29:30;;;;;;;7.75;6.55;;;17.60;99.90;;;;;;5093124;27;20059;-34
2022/06/27 05:31:57;;;;;;;7.57;6.78;;;17.60;99.90;;;;;;5129044;27;20503;-34
2022/06/27 05:34:23;;;;;;;6.00;5.45;;;17.60;99.90;;;;;;5110244;27;20571;-34
2022/06/27 05:36:50;;;;;;;6.53;5.85;;;17.60;99.90;;;;;;5111764;28;20087;-34
2022/06/27 05:39:17;;;;;;;6.25;5.30;;;17.60;99.90;;;;;;5096703;27;20075;-34
2022/06/27 05:41:46;;;;;;;8.45;6.03;;;17.70;99.90;;;;;;5108064;28;20432;-35
2022/06/27 05:44:14;;;;;;;7.13;5.22;;;17.70;99.90;;;;;;5096235;28;20120;-34
2022/06/27 05:46:41;;;;;;;7.43;4.63;;;17.80;99.90;;;;;;5110744;28;20146;-34
2022/06/27 05:49:08;;;;;;;5.43;4.45;;;17.80;99.90;;;;;;5103709;28;20062;-34
2022/06/27 05:51:36;;;;;;;5.65;4.00;;;17.80;99.90;;;;;;5100481;28;20083;-34
2022/06/27 05:54:03;;;;;;;4.50;3.97;;;17.90;99.90;;;;;;5099371;27;20056;-34
2022/06/27 05:56:30;;;;;;;4.47;3.25;;;17.90;99.90;;;;;;5091396;27;20157;-34
2022/06/27 05:58:58;;;;;;;3.60;3.30;;;17.90;99.90;;;;;;5095693;28;20058;-34
2022/06/27 06:01:27;;;;;;;5.00;2.97;;;18.00;99.90;;;;;;5096054;28;20854;-34
2022/06/27 06:03:53;;;;;;;3.08;2.67;;;18.00;99.90;;;;;;5093536;28;20055;-34
2022/06/27 06:06:21;;;;;;;5.43;2.75;;;18.00;99.90;;;;;;5098181;28;20062;-34
2022/06/27 06:08:48;;;;;;;4.45;3.17;;;18.10;99.90;;;;;;5106114;27;20059;-34
2022/06/27 06:11:15;;;;;;;4.35;3.20;;;18.00;99.90;;;;;;5133454;27;20047;-35
2022/06/27 06:13:43;;;;;;;3.83;3.30;;;18.10;99.90;;;;;;5104928;28;20438;-34
2022/06/27 06:16:12;;;;;;;3.80;2.67;;;18.10;99.90;;;;;;5091443;28;20079;-34
2022/06/27 06:18:38;;;;;;;5.50;3.58;;;18.10;99.90;;;;;;5091759;28;20042;-34
2022/06/27 06:21:05;;;;;;;3.30;3.00;;;18.20;99.90;;;;;;5096610;28;20151;-34
2022/06/27 06:23:33;;;;;;;4.30;2.88;;;18.20;99.90;;;;;;5133140;27;20079;-34
2022/06/27 06:26:01;;;;;;;4.03;2.75;;;18.20;99.90;;;;;;5093443;28;20055;-34
2022/06/27 06:28:30;;;;;;;3.08;2.67;;;18.20;99.90;;;;;;5097906;28;20048;-34
2022/06/27 06:30:57;;;;;;;4.50;2.67;;;18.20;99.90;;;;;;5100649;28;20050;-35
2022/06/27 06:33:26;;;;;;;6.28;2.70;;;18.20;99.90;;;;;;5092649;28;20043;-34
2022/06/27 06:35:54;;;;;;;3.38;2.55;;;18.20;99.90;;;;;;5108462;28;20055;-35
2022/06/27 06:38:21;;;;;;;3.40;2.08;;;18.20;99.90;;;;;;5110115;28;20495;-34
2022/06/27 06:40:48;;;;;;;3.97;2.60;;;18.20;99.90;;;;;;5106080;28;20051;-34
2022/06/27 06:43:15;;;;;;;2.95;2.28;;;18.20;99.90;;;;;;5090865;28;20434;-34
2022/06/27 06:45:42;;;;;;;4.25;2.80;;;18.30;99.90;;;;;;5106312;28;20108;-35
2022/06/27 06:48:10;;;;;;;3.08;2.05;;;18.30;99.90;;;;;;5109059;28;20040;-35
2022/06/27 06:50:40;;;;;;;4.10;3.03;;;18.30;99.90;;;;;;5091400;28;20048;-35
2022/06/27 06:53:07;;;;;;;3.63;2.78;;;18.30;99.90;;;;;;5138592;27;20055;-34
2022/06/27 06:55:34;;;;;;;3.22;2.65;;;18.30;99.90;;;;;;5097503;28;20079;-35
2022/06/27 06:58:01;;;;;;;3.20;2.70;;;18.30;99.90;;;;;;5103850;28;20064;-34
2022/06/27 07:00:28;;;;;;;5.97;2.53;;;18.30;99.90;;;;;;5104264;27;20056;-34
2022/06/27 07:02:55;;;;;;;2.95;2.60;;;18.30;99.90;;;;;;5105197;28;20484;-34
2022/06/27 07:05:22;;;;;;;3.85;2.65;;;18.30;99.90;;;;;;5102999;28;20083;-35
2022/06/27 07:07:52;;;;;;;5.95;2.88;;;18.30;99.90;;;;;;5113475;28;20100;-34
2022/06/27 07:10:19;;;;;;;4.43;2.92;;;18.40;99.90;;;;;;5096662;28;20052;-35
2022/06/27 07:12:46;;;;;;;5.53;2.75;;;18.40;99.90;;;;;;5094734;28;20055;-35
2022/06/27 07:15:12;;;;;;;2.47;2.00;;;18.40;99.90;;;;;;5100994;27;20145;-34
2022/06/27 07:17:41;;;;;;;3.92;2.63;;;18.40;99.90;;;;;;5112318;28;20418;-34
2022/06/27 07:20:09;;;;;;;3.50;2.60;;;18.50;99.90;;;;;;5099190;28;20492;-34
2022/06/27 07:22:36;;;;;;;4.68;2.85;;;18.50;99.90;;;;;;5109072;27;20043;-34
2022/06/27 07:25:05;;;;;;;3.00;2.53;;;18.50;99.90;;;;;;5102328;28;20505;-34
2022/06/27 07:27:32;;;;;;;7.10;2.42;;;18.50;99.90;;;;;;5109447;28;20066;-34
2022/06/27 07:29:59;;;;;;;6.97;2.45;;;18.50;99.90;;;;;;5113695;28;20043;-34
2022/06/27 07:32:27;;;;;;;5.40;2.88;;;18.50;99.90;;;;;;5112885;28;20043;-34
2022/06/27 07:34:54;;;;;;;3.97;2.45;;;18.50;99.90;;;;;;5113386;28;20055;-33
2022/06/27 07:37:21;;;;;;;4.40;2.72;;;18.40;99.90;;;;;;5113109;28;20056;-34
2022/06/27 07:39:49;;;;;;;3.25;2.70;;;18.40;99.90;;;;;;5107935;28;20479;-34
2022/06/27 07:42:17;;;;;;;5.53;2.55;;;18.50;99.90;;;;;;5098562;28;20441;-34
2022/06/27 07:44:44;;;;;;;2.63;2.28;;;18.50;99.90;;;;;;5103923;28;20063;-34
2022/06/27 07:47:11;;;;;;;3.10;2.80;;;18.50;99.90;;;;;;5094660;27;20488;-34
2022/06/27 07:49:38;;;;;;;4.68;2.70;;;18.50;99.90;;;;;;5093617;27;20103;-34
2022/06/27 07:52:06;;;;;;;5.07;2.70;;;18.60;99.90;;;;;;5106169;28;20043;-35
2022/06/27 07:54:33;;;;;;;3.20;2.30;;;18.60;99.90;;;;;;5114775;28;20055;-35
2022/06/27 07:57:00;;;;;;;3.20;2.72;;;18.60;99.90;;;;;;5113080;28;20051;-35
2022/06/27 07:59:29;;;;;;;3.53;2.55;;;18.60;99.90;;;;;;5101581;27;20483;-35
2022/06/27 08:01:55;;;;;;;3.00;2.45;;;18.70;99.90;;;;;;5093185;28;20058;-35
2022/06/27 08:04:23;;;;;;;5.22;2.88;;;18.70;99.90;;;;;;5093279;28;20442;-35
2022/06/27 08:06:50;;;;;;;4.85;2.78;;;18.80;99.90;;;;;;5094407;28;20059;-35
2022/06/27 08:09:19;;;;;;;4.13;3.35;;;18.80;99.90;;;;;;5101218;28;20048;-35
2022/06/27 08:11:46;;;;;;;4.63;3.50;;;18.90;99.90;;;;;;5101288;28;20040;-35
2022/06/27 08:14:17;;;;;;;4.28;3.85;;;19.00;99.90;;;;;;5094024;28;20422;-35
2022/06/27 08:16:48;;;;;;;5.78;3.35;;;19.20;99.90;;;;;;5093589;28;20520;-35
2022/06/27 08:19:14;;;;;;;3.53;2.70;;;19.30;99.90;;;;;;5104051;28;20185;-35
2022/06/27 08:21:43;;;;;;;2.80;2.42;;;19.30;99.90;;;;;;5113072;28;20051;-35
2022/06/27 08:24:11;;;;;;;3.25;2.53;;;19.40;99.90;;;;;;5114157;28;20074;-35
2022/06/27 08:26:38;;;;;;;5.72;2.58;;;19.40;99.90;;;;;;5112895;28;20090;-35
2022/06/27 08:29:05;;;;;;;9.20;2.30;;;19.50;99.90;;;;;;5109135;28;20079;-35
2022/06/27 08:31:32;;;;;;;4.85;2.40;;;19.50;99.90;;;;;;5095518;28;20109;-35
2022/06/27 08:34:02;;;;;;;3.78;2.67;;;19.50;99.90;;;;;;5112737;28;20052;-35
2022/06/27 08:36:30;;;;;;;2.50;2.30;;;19.50;99.90;;;;;;5110934;28;20082;-35
2022/06/27 08:38:57;;;;;;;3.72;2.45;;;19.50;99.90;;;;;;5099111;28;20044;-35
2022/06/27 08:41:24;;;;;;;4.93;2.63;;;19.50;99.90;;;;;;5092734;28;20092;-35
2022/06/27 08:43:54;;;;;;;2.60;2.20;;;19.50;99.90;;;;;;5111616;28;20503;-35
2022/06/27 08:46:22;;;;;;;3.53;2.10;;;19.50;99.90;;;;;;5103238;27;20048;-35
2022/06/27 08:48:50;;;;;;;3.70;1.88;;;19.60;99.90;;;;;;5093357;28;20101;-35
2022/06/27 08:51:18;;;;;;;3.88;1.80;;;19.60;99.90;;;;;;5102527;28;20055;-35
2022/06/27 08:53:45;;;;;;;4.85;1.65;;;19.80;99.90;;;;;;5112780;28;20043;-35
2022/06/27 08:56:13;;;;;;;4.07;1.65;;;19.80;99.90;;;;;;5105390;27;20101;-35
2022/06/27 08:58:40;;;;;;;4.18;1.70;;;19.90;99.90;;;;;;5093103;28;20135;-35
2022/06/27 09:01:07;;;;;;;1.67;1.35;;;19.90;99.90;;;;;;5096556;28;20047;-35
2022/06/27 09:03:34;;;;;;;2.20;1.40;;;20.10;99.90;;;;;;5092484;28;20180;-35
2022/06/27 09:06:01;;;;;;;1.50;1.30;;;20.20;99.90;;;;;;5096356;28;20052;-35
2022/06/27 09:08:31;;;;;;;1.40;1.30;;;20.40;99.90;;;;;;5113263;28;20560;-35
2022/06/27 09:10:58;;;;;;;1.88;1.58;;;20.60;99.60;;;;;;5113139;28;20156;-35
2022/06/27 09:13:26;;;;;;;5.07;1.83;;;20.70;99.20;;;;;;5111635;28;20541;-35
2022/06/27 09:15:55;;;;;;;2.00;1.50;;;20.70;99.20;;;;;;5110101;28;20055;-35
2022/06/27 09:18:23;;;;;;;2.28;1.30;;;20.80;98.90;;;;;;5092902;28;20364;-35
2022/06/27 09:20:52;;;;;;;2.55;1.40;;;20.80;98.60;;;;;;5092644;27;20056;-35
2022/06/27 09:23:39;;;;;;;2.70;1.17;;;20.80;98.30;;;;;;5106842;28;20051;-35
2022/06/27 09:26:08;;;;;;;2.72;1.33;;;20.70;98.20;;;;;;5112612;28;20050;-35
2022/06/27 09:28:43;;;;;;;2.60;1.50;;;20.70;98.30;;;;;;5112756;28;20148;-35
2022/06/27 09:31:11;;;;;;;1.75;1.20;;;20.70;98.10;;;;;;5111975;27;20047;-35
2022/06/27 09:33:40;;;;;;;3.20;1.42;;;20.70;98.10;;;;;;5104060;28;20479;-35
2022/06/27 09:36:11;;;;;;;2.90;1.60;;;20.60;98.00;;;;;;5092624;28;20501;-35
2022/06/27 09:38:44;;;;;;;2.88;1.75;;;20.60;98.30;;;;;;5095650;28;20113;-35
2022/06/27 09:41:12;;;;;;;1.92;1.48;;;20.60;98.20;;;;;;5093105;28;20052;-35
2022/06/27 09:43:42;;;;;;;2.42;1.30;;;20.60;98.40;;;;;;5092221;28;20131;-35
2022/06/27 09:46:10;;;;;;;1.90;1.63;;;20.60;98.50;;;;;;5092277;28;20474;-35
2022/06/27 09:48:37;;;;;;;1.50;1.38;;;20.70;98.50;;;;;;5093975;28;20717;-35
2022/06/27 09:51:04;;;;;;;3.25;1.52;;;20.70;98.40;;;;;;5101604;28;20055;-35
2022/06/27 09:53:31;;;;;;;3.00;1.45;;;20.70;98.20;;;;;;5104942;28;20052;-35
2022/06/27 09:55:59;;;;;;;2.10;1.40;;;20.70;98.20;;;;;;5112048;28;20424;-35
2022/06/27 09:58:27;;;;;;;6.07;1.42;;;20.70;98.10;;;;;;5108506;28;20055;-35
2022/06/27 10:00:54;;;;;;;1.50;1.40;;;20.70;97.90;;;;;;5098502;28;20048;-35
2022/06/27 10:03:21;;;;;;;2.35;1.50;;;20.70;98.10;;;;;;5111042;28;20052;-35
2022/06/27 10:05:48;;;;;;;2.88;1.80;;;20.70;98.10;;;;;;5108240;28;20482;-35
2022/06/27 10:08:16;;;;;;;3.92;1.60;;;20.80;98.00;;;;;;5107349;28;20067;-35
2022/06/27 10:11:12;;;;;;;4.57;1.65;;;20.80;97.90;;;;;;5099051;28;20075;-35
2022/06/27 10:13:40;;;;;;;1.90;1.70;;;20.90;97.50;;;;;;5072042;28;20104;-35
2022/06/27 10:16:08;;;;;;;2.00;1.80;;;20.80;97.80;;;;;;5109839;28;20101;-35
2022/06/27 10:18:52;;;;;;;4.47;2.17;;;20.90;97.50;;;;;;5111645;28;20461;-35
2022/06/27 10:21:25;;;;;;;3.88;2.20;;;20.90;97.40;;;;;;5101408;28;20063;-35
2022/06/27 10:24:25;;;;;;;3.17;2.28;;;20.90;97.40;;;;;;5108361;28;20120;-35
2022/06/27 10:26:54;;;;;;;3.95;2.13;;;20.90;97.40;;;;;;5102301;28;20138;-35
2022/06/27 10:29:47;;;;;;;3.28;2.20;;;20.80;97.40;;;;;;5111955;28;20479;-35
2022/06/27 10:32:46;;;;;;;3.25;2.33;;;20.90;97.60;;;;;;5097160;28;20176;-35
2022/06/27 10:35:16;;;;;;;5.15;2.42;;;20.90;97.50;;;;;;5108445;28;20055;-35
2022/06/27 10:37:44;;;;;;;4.05;2.80;;;20.90;97.70;;;;;;5111640;28;20058;-36
2022/06/27 10:40:56;;;;;;;2.58;1.98;;;20.90;97.20;;;;;;5095909;28;20396;-35
2022/06/27 10:43:45;;;;;;;3.35;2.35;;;21.00;97.10;;;;;;5105147;27;20090;-35
2022/06/27 10:46:43;;;;;;;5.63;2.70;;;21.00;97.10;;;;;;5103015;28;20055;-35
2022/06/27 10:49:29;;;;;;;3.60;2.63;;;21.00;97.10;;;;;;5111561;28;20067;-35
2022/06/27 10:52:33;;;;;;;4.35;2.45;;;21.10;97.10;;;;;;5100471;28;20098;-35
2022/06/27 10:55:00;;;;;;;6.82;3.03;;;21.20;97.20;;;;;;5096272;28;20472;-35
2022/06/27 10:57:44;;;;;;;5.47;2.92;;;21.20;97.10;;;;;;5095063;28;20040;-35
2022/06/27 11:00:34;;;;;;;7.30;3.08;;;21.30;97.10;;;;;;5096787;28;20052;-35
2022/06/27 11:03:00;;;;;;;5.57;3.33;;;21.30;96.80;;;;;;5103480;28;20075;-35
2022/06/27 11:05:28;;;;;;;7.82;2.50;;;21.20;96.70;;;;;;5114709;28;20121;-35
2022/06/27 11:07:55;;;;;;;3.90;2.50;;;21.20;97.00;;;;;;5115285;28;20086;-35
2022/06/27 11:10:22;;;;;;;5.45;2.78;;;21.20;97.00;;;;;;5115720;28;20402;-35
2022/06/27 11:12:49;;;;;;;3.95;2.53;;;21.30;97.00;;;;;;5110338;28;20079;-35
2022/06/27 11:15:17;;;;;;;4.63;3.10;;;21.30;97.10;;;;;;5097171;27;20055;-35
2022/06/27 11:17:44;;;;;;;3.33;2.65;;;21.40;97.10;;;;;;5095622;28;20101;-35
2022/06/27 11:20:30;;;;;;;3.90;3.50;;;21.30;97.00;;;;;;5094489;28;20082;-35
2022/06/27 11:22:57;;;;;;;6.35;3.60;;;21.40;96.90;;;;;;5103043;28;20039;-35
2022/06/27 11:25:25;;;;;;;5.32;3.50;;;21.30;97.00;;;;;;5101428;27;20445;-35
2022/06/27 11:27:53;;;;;;;6.25;4.00;;;21.30;97.30;;;;;;5112695;28;20079;-35
2022/06/27 11:33:17;;;;;;;4.63;4.03;;;21.20;97.10;;;;;;5095735;28;20044;-35
2022/06/27 11:35:44;;;;;;;5.45;4.00;;;21.10;97.50;;;;;;5095551;27;20051;-35
2022/06/27 11:38:11;;;;;;;4.45;3.30;;;21.20;97.30;;;;;;5094539;28;20056;-35
2022/06/27 11:40:39;;;;;;;3.00;2.70;;;21.20;97.30;;;;;;5102838;28;20051;-35
2022/06/27 11:43:07;;;;;;;4.93;3.00;;;21.30;97.40;;;;;;5115712;27;20052;-35
2022/06/27 11:45:41;;;;;;;6.45;3.38;;;21.30;97.60;;;;;;5101496;28;20059;-35
2022/06/27 11:48:15;;;;;;;4.20;2.83;;;21.30;97.20;;;;;;5095688;28;20058;-35
2022/06/27 11:50:42;;;;;;;6.82;3.35;;;21.30;97.40;;;;;;5115661;28;20048;-35
2022/06/27 11:53:09;;;;;;;3.75;2.90;;;21.30;97.50;;;;;;5115585;28;20055;-35
2022/06/27 11:55:36;;;;;;;3.47;3.00;;;21.30;97.40;;;;;;5110660;28;20059;-35
2022/06/27 11:58:03;;;;;;;3.85;3.10;;;21.20;97.60;;;;;;5115033;28;20047;-35
2022/06/27 12:00:31;;;;;;;3.88;2.92;;;21.20;98.10;;;;;;5114811;28;20491;-35
2022/06/27 12:03:04;;;;;;;3.65;2.40;;;21.20;98.20;;;;;;5115297;28;20479;-35
2022/06/27 12:05:31;;;;;;;4.60;2.55;;;21.30;98.40;;;;;;5105478;28;20076;-35
2022/06/27 12:07:59;;;;;;;4.50;3.10;;;21.30;98.60;;;;;;5095711;27;20048;-35
2022/06/27 12:10:39;;;;;;;4.65;3.08;;;21.40;98.80;;;;;;5094419;28;20188;-35
2022/06/27 12:13:08;;;;;;;4.40;3.13;;;21.50;98.70;;;;;;5094780;28;20084;-35
2022/06/27 12:15:35;;;;;;;4.15;3.55;;;21.50;98.40;;;;;;5093736;28;20565;-35
2022/06/27 12:18:04;;;;;;;4.13;3.47;;;21.50;98.20;;;;;;5094640;28;20084;-35
2022/06/27 12:20:31;;;;;;;4.20;3.55;;;21.50;97.90;;;;;;5097346;28;20085;-35
2022/06/27 12:22:58;;;;;;;5.40;4.10;;;21.50;98.10;;;;;;5109924;28;20557;-35
2022/06/27 12:25:25;;;;;;;4.45;4.00;;;21.50;97.80;;;;;;5093899;28;20063;-35
2022/06/27 12:27:52;;;;;;;5.13;4.03;;;21.60;97.90;;;;;;5100111;28;20044;-35
2022/06/27 12:30:19;;;;;;;4.43;4.03;;;21.60;98.20;;;;;;5093049;28;20456;-35
2022/06/27 12:32:46;;;;;;;4.68;4.18;;;21.70;98.30;;;;;;5101750;28;20476;-35
2022/06/27 12:35:14;;;;;;;7.47;4.32;;;21.70;98.20;;;;;;5100862;28;20056;-35
2022/06/27 12:37:41;;;;;;;6.63;4.55;;;21.80;98.60;;;;;;5094087;28;20044;-35
2022/06/27 12:40:10;;;;;;;5.57;4.10;;;21.90;98.60;;;;;;5094371;28;20436;-36
2022/06/27 12:42:37;;;;;;;5.82;4.53;;;21.90;98.10;;;;;;5104488;28;20048;-35
2022/06/27 12:45:04;;;;;;;8.05;4.80;;;21.90;97.60;;;;;;5094252;28;20052;-35
2022/06/27 12:47:31;;;;;;;6.68;4.65;;;21.90;97.70;;;;;;5098377;28;20075;-35
2022/06/27 12:49:58;;;;;;;7.00;4.13;;;21.90;98.00;;;;;;5114440;28;20089;-35
2022/06/27 12:52:26;;;;;;;6.25;4.65;;;21.90;98.00;;;;;;5098267;28;20131;-35
2022/06/27 12:54:52;;;;;;;5.03;4.53;;;22.00;97.90;;;;;;5092622;28;20488;-35
2022/06/27 12:57:19;;;;;;;6.07;4.88;;;21.90;98.20;;;;;;5099509;28;20048;-35
2022/06/27 12:59:46;;;;;;;5.13;4.57;;;21.80;97.90;;;;;;5094167;28;20052;-35
2022/06/27 13:02:15;;;;;;;7.65;4.10;;;21.80;98.40;;;;;;5106513;28;20126;-35